createdAt,value
2019-02-11T00:02:09.912Z,41.53
2019-02-11T00:04:42.807Z,49.23
2019-02-11T00:07:26.376Z,42.93
2019-02-11T00:10:02.353Z,43.43
2019-02-11T00:12:40.252Z,43.63
2019-02-11T00:15:13.560Z,47.13
2019-02-11T00:17:49.214Z,47.13
2019-02-11T00:20:26.737Z,42.97
2019-02-11T00:23:03.769Z,42.20
2019-02-11T00:28:38.231Z,43.00
2019-02-11T00:31:18.667Z,40.20
2019-02-11T00:33:52.879Z,42.63
2019-02-11T00:36:35.463Z,45.43
2019-02-11T00:39:11.429Z,43.20
2019-02-11T00:47:36.028Z,44.37
2019-02-11T00:56:07.385Z,45.30
2019-02-11T00:58:58.905Z,37.97
2019-02-11T01:02:11.416Z,43.53
2019-02-11T01:04:28.446Z,40.90
2019-02-11T01:07:07.686Z,41.10
2019-02-11T01:09:50.718Z,44.27
2019-02-11T01:12:22.790Z,40.50
2019-02-11T01:15:16.310Z,43.13
2019-02-11T01:20:36.789Z,42.73
2019-02-11T01:23:15.252Z,41.03
2019-02-11T01:25:56.909Z,42.93
2019-02-11T01:31:36.653Z,43.50
2019-02-11T01:37:10.876Z,40.70
2019-02-11T01:39:49.759Z,37.17
2019-02-11T01:42:21.573Z,39.40
2019-02-11T01:45:00.373Z,41.17
2019-02-11T01:47:36.612Z,38.77
2019-02-11T01:50:09.392Z,37.43
2019-02-11T01:52:45.468Z,43.60
2019-02-11T01:55:34.496Z,43.67
2019-02-11T01:58:08.568Z,43.20
2019-02-11T02:00:45.649Z,42.97
2019-02-11T02:03:32.946Z,41.13
2019-02-11T02:06:14.487Z,42.50
2019-02-11T02:08:55.252Z,41.63
2019-02-11T02:11:35.149Z,43.90
2019-02-11T02:17:07.065Z,41.67
2019-02-11T02:19:41.405Z,40.10
2019-02-11T02:22:15.824Z,44.07
2019-02-11T02:24:49.129Z,49.57
2019-02-11T02:27:30.110Z,46.47
2019-02-11T02:30:17.217Z,47.50
2019-02-11T02:32:45.135Z,46.77
2019-02-11T02:35:22.288Z,48.20
2019-02-11T02:38:03.504Z,51.50
2019-02-11T02:40:53.241Z,46.10
2019-02-11T02:43:27.659Z,47.40
2019-02-11T02:46:00.838Z,44.60
2019-02-11T02:48:33.374Z,48.90
2019-02-11T02:51:09.165Z,54.43
2019-02-11T02:53:42.296Z,51.57
2019-02-11T02:56:16.349Z,46.77
2019-02-11T02:58:45.082Z,48.47
2019-02-11T03:01:17.143Z,59.13
2019-02-11T03:03:49.409Z,52.07
2019-02-11T03:06:22.423Z,52.73
2019-02-11T03:08:51.778Z,49.43
2019-02-11T03:11:25.405Z,48.80
2019-02-11T03:14:04.938Z,50.30
2019-02-11T03:16:29.037Z,52.83
2019-02-11T03:18:59.501Z,55.43
2019-02-11T03:21:32.954Z,57.90
2019-02-11T03:24:08.241Z,54.33
2019-02-11T03:26:38.946Z,58.20
2019-02-11T03:29:12.712Z,51.80
2019-02-11T03:31:44.606Z,56.20
2019-02-11T03:34:17.637Z,57.77
2019-02-11T03:36:52.327Z,57.83
2019-02-11T03:39:28.527Z,57.93
2019-02-11T03:42:02.075Z,61.63
2019-02-11T03:44:31.325Z,59.47
2019-02-11T03:47:07.642Z,59.63
2019-02-11T03:49:48.315Z,57.70
2019-02-11T03:52:23.554Z,58.10
2019-02-11T03:55:05.726Z,65.77
2019-02-11T03:57:35.045Z,59.87
2019-02-11T04:00:06.087Z,56.47
2019-02-11T04:02:39.526Z,67.53
2019-02-11T04:05:14.861Z,61.67
2019-02-11T04:07:50.626Z,57.20
2019-02-11T04:10:27.512Z,58.83
2019-02-11T04:13:00.736Z,65.27
2019-02-11T04:16:03.444Z,62.17
2019-02-11T04:18:11.173Z,62.47
2019-02-11T04:20:41.609Z,64.83
2019-02-11T04:23:20.034Z,61.53
2019-02-11T04:26:04.982Z,63.07
2019-02-11T04:28:38.569Z,62.40
2019-02-11T04:31:09.900Z,66.60
2019-02-11T04:33:45.711Z,63.07
2019-02-11T04:36:18.866Z,61.13
2019-02-11T04:38:59.028Z,64.23
2019-02-11T04:41:47.420Z,61.40
2019-02-11T04:44:22.751Z,66.77
2019-02-11T04:47:01.733Z,62.77
2019-02-11T04:49:38.729Z,58.20
2019-02-11T04:52:11.766Z,60.00
2019-02-11T04:54:45.118Z,65.27
2019-02-11T04:57:21.470Z,55.07
2019-02-11T04:59:53.184Z,62.40
2019-02-11T05:02:27.422Z,61.43
2019-02-11T05:05:02.632Z,64.67
2019-02-11T05:07:38.356Z,67.37
2019-02-11T05:10:18.376Z,56.97
2019-02-11T05:12:49.967Z,70.30
2019-02-11T05:15:24.266Z,66.13
2019-02-11T05:20:49.562Z,56.43
2019-02-11T05:23:28.005Z,62.17
2019-02-11T05:26:06.580Z,56.53
2019-02-11T05:28:54.772Z,65.63
2019-02-11T05:31:34.103Z,56.17
2019-02-11T05:34:10.887Z,61.30
2019-02-11T05:36:47.169Z,58.00
2019-02-11T05:39:38.080Z,60.00
2019-02-11T05:42:11.247Z,58.10
2019-02-11T05:50:35.531Z,58.03
2019-02-11T06:01:57.438Z,50.17
2019-02-11T06:04:34.012Z,45.70
2019-02-11T06:07:25.535Z,50.30
2019-02-11T06:09:56.707Z,44.93
2019-02-11T06:12:39.500Z,43.93
2019-02-11T06:15:10.268Z,50.57
2019-02-11T06:17:47.103Z,45.90
2019-02-11T06:20:27.395Z,49.17
2019-02-11T06:23:16.424Z,47.60
2019-02-11T06:25:56.507Z,50.63
2019-02-11T06:28:40.530Z,43.07
2019-02-11T06:31:24.384Z,45.00
2019-02-11T06:34:04.887Z,41.87
2019-02-11T06:36:37.038Z,41.67
2019-02-11T06:39:11.304Z,44.90
2019-02-11T06:41:45.556Z,44.67
2019-02-11T06:44:17.500Z,42.40
2019-02-11T06:46:49.919Z,43.50
2019-02-11T06:49:34.952Z,42.10
2019-02-11T06:52:06.054Z,42.00
2019-02-11T06:54:40.820Z,45.70
2019-02-11T06:57:13.163Z,40.53
2019-02-11T06:59:49.937Z,44.00
2019-02-11T07:02:23.760Z,38.13
2019-02-11T07:04:58.732Z,42.13
2019-02-11T07:07:28.722Z,36.73
2019-02-11T07:10:01.034Z,34.63
2019-02-11T07:12:33.135Z,37.70
2019-02-11T07:15:09.469Z,31.97
2019-02-11T07:17:43.688Z,33.80
2019-02-11T07:20:13.145Z,36.70
2019-02-11T07:22:45.472Z,34.73
2019-02-11T07:25:19.022Z,32.30
2019-02-11T07:33:29.188Z,33.70
2019-02-11T07:36:02.301Z,34.17
2019-02-11T07:38:33.734Z,32.20
2019-02-11T07:44:06.328Z,25.90
2019-02-11T07:49:20.037Z,29.13
2019-02-11T07:51:54.467Z,24.17
2019-02-11T07:54:29.618Z,26.00
2019-02-11T07:57:04.638Z,27.90
2019-02-11T07:59:37.448Z,28.80
2019-02-11T08:05:20.810Z,26.30
2019-02-11T08:07:53.985Z,24.53
2019-02-11T08:10:23.660Z,24.77
2019-02-11T08:12:54.998Z,23.10
2019-02-11T08:15:38.607Z,21.50
2019-02-11T08:18:06.375Z,24.20
2019-02-11T08:20:37.791Z,21.93
2019-02-11T08:23:13.601Z,21.17
2019-02-11T08:25:42.856Z,22.30
2019-02-11T08:28:19.553Z,22.00
2019-02-11T08:30:53.136Z,21.13
2019-02-11T08:33:24.386Z,22.37
2019-02-11T08:35:54.866Z,21.03
2019-02-11T08:38:24.155Z,18.97
2019-02-11T08:40:53.504Z,19.63
2019-02-11T08:43:24.205Z,18.43
2019-02-11T08:45:53.887Z,19.67
2019-02-11T08:48:27.154Z,21.27
2019-02-11T08:51:05.451Z,19.00
2019-02-11T08:53:35.384Z,17.17
2019-02-11T08:56:06.197Z,20.67
2019-02-11T08:58:40.492Z,21.70
2019-02-11T09:01:22.215Z,17.60
2019-02-11T09:04:01.827Z,19.30
2019-02-11T09:06:26.852Z,19.30
2019-02-11T09:08:55.674Z,17.23
2019-02-11T09:11:25.233Z,18.13
2019-02-11T09:13:54.807Z,18.63
2019-02-11T09:16:24.718Z,19.73
2019-02-11T09:18:53.923Z,16.37
2019-02-11T09:21:24.218Z,17.27
2019-02-11T09:23:56.797Z,15.47
2019-02-11T09:26:28.497Z,15.23
2019-02-11T09:29:01.098Z,14.13
2019-02-11T09:31:33.795Z,14.07
2019-02-11T09:34:02.989Z,15.93
2019-02-11T09:36:38.029Z,21.70
2019-02-11T09:39:10.465Z,13.77
2019-02-11T09:41:44.135Z,14.77
2019-02-11T09:44:29.465Z,15.97
2019-02-11T09:46:56.909Z,15.17
2019-02-11T09:49:29.987Z,15.27
2019-02-11T09:52:00.290Z,15.10
2019-02-11T09:54:32.420Z,11.13
2019-02-11T09:57:06.312Z,12.00
2019-02-11T09:59:36.572Z,11.27
2019-02-11T10:02:07.237Z,11.33
2019-02-11T10:07:28.793Z,12.07
2019-02-11T10:10:14.765Z,11.90
2019-02-11T10:12:45.341Z,12.47
2019-02-11T10:15:16.799Z,12.40
2019-02-11T10:17:47.742Z,8.43
2019-02-11T10:20:19.024Z,11.43
2019-02-11T10:22:53.568Z,10.37
2019-02-11T10:25:44.709Z,11.37
2019-02-11T10:28:16.400Z,12.00
2019-02-11T10:30:53.135Z,9.57
2019-02-11T10:33:26.378Z,21.10
2019-02-11T10:35:57.746Z,8.87
2019-02-11T10:38:56.666Z,10.07
2019-02-11T10:41:27.521Z,10.50
2019-02-11T10:43:59.440Z,10.17
2019-02-11T10:46:32.392Z,7.17
2019-02-11T10:49:49.049Z,11.53
2019-02-11T10:52:21.494Z,6.03
2019-02-11T10:54:53.853Z,7.10
2019-02-11T10:57:31.296Z,9.23
2019-02-11T11:00:07.628Z,6.30
2019-02-11T11:02:49.094Z,8.20
2019-02-11T11:05:24.171Z,8.60
2019-02-11T11:08:02.461Z,7.53
2019-02-11T11:10:38.576Z,4.90
2019-02-11T11:13:11.632Z,6.30
2019-02-11T11:15:50.442Z,6.33
2019-02-11T11:18:33.293Z,12.77
2019-02-11T11:21:07.105Z,8.40
2019-02-11T11:24:40.072Z,6.83
2019-02-11T11:26:39.886Z,6.60
2019-02-11T11:29:14.090Z,7.53
2019-02-11T11:34:46.124Z,5.50
2019-02-11T11:37:20.636Z,7.70
2019-02-11T11:39:55.978Z,9.00
2019-02-11T11:42:42.064Z,8.53
2019-02-11T11:45:22.837Z,9.27
2019-02-11T11:47:59.751Z,7.23
2019-02-11T11:50:31.707Z,7.73
2019-02-11T11:53:07.665Z,7.17
2019-02-11T11:55:49.399Z,11.70
2019-02-11T11:58:28.351Z,4.83
2019-02-11T12:01:00.894Z,14.67
2019-02-11T12:03:33.800Z,7.10
2019-02-11T12:06:13.042Z,4.83
2019-02-11T12:08:53.491Z,9.83
2019-02-11T12:14:17.381Z,5.97
2019-02-11T12:16:56.976Z,7.73
2019-02-11T12:19:24.820Z,7.87
2019-02-11T12:22:01.110Z,11.80
2019-02-11T12:24:40.673Z,9.83
2019-02-11T12:27:29.111Z,6.67
2019-02-11T12:33:12.325Z,5.23
2019-02-11T12:35:48.721Z,8.17
2019-02-11T12:38:35.532Z,10.23
2019-02-11T12:41:08.858Z,8.80
2019-02-11T12:43:42.631Z,10.53
2019-02-11T12:46:39.192Z,18.23
2019-02-11T12:49:14.067Z,10.30
2019-02-11T12:51:47.949Z,14.00
2019-02-11T12:55:08.707Z,13.00
2019-02-11T12:57:40.880Z,15.00
2019-02-11T13:00:37.110Z,16.57
2019-02-11T13:03:14.014Z,16.73
2019-02-11T13:09:53.505Z,14.50
2019-02-11T13:12:08.100Z,14.23
2019-02-11T13:15:09.571Z,18.33
2019-02-11T13:17:54.550Z,18.37
2019-02-11T13:20:31.021Z,16.37
2019-02-11T13:23:08.173Z,12.67
2019-02-11T13:28:37.727Z,15.17
2019-02-11T13:34:10.694Z,16.43
2019-02-11T13:36:54.514Z,14.93
2019-02-11T13:39:43.954Z,15.57
2019-02-11T13:42:17.379Z,14.43
2019-02-11T13:45:16.424Z,13.30
2019-02-11T13:48:00.363Z,15.87
2019-02-11T14:09:17.114Z,15.47
2019-02-11T14:36:42.995Z,16.87
2019-02-11T14:39:14.376Z,13.30
2019-02-11T14:41:48.517Z,18.17
2019-02-11T14:44:19.110Z,14.80
2019-02-11T14:46:50.029Z,12.43
2019-02-11T14:49:25.242Z,13.77
2019-02-11T14:51:59.199Z,14.93
2019-02-11T14:54:34.835Z,13.57
2019-02-11T14:57:05.077Z,13.43
2019-02-11T14:59:38.767Z,13.57
2019-02-11T15:02:12.168Z,17.20
2019-02-11T15:04:44.961Z,13.00
2019-02-11T15:07:25.307Z,15.93
2019-02-11T15:10:01.419Z,13.47
2019-02-11T15:12:30.479Z,12.70
2019-02-11T15:15:07.692Z,13.53
2019-02-11T15:17:42.960Z,14.03
2019-02-11T15:20:28.948Z,14.27
2019-02-11T15:23:02.760Z,14.73
2019-02-11T15:25:35.751Z,10.83
2019-02-11T15:28:06.844Z,16.90
2019-02-11T15:30:37.664Z,14.07
2019-02-11T15:33:09.607Z,11.13
2019-02-11T15:35:39.702Z,17.80
2019-02-11T15:38:12.248Z,16.50
2019-02-11T15:40:42.996Z,17.27
2019-02-11T15:43:12.371Z,17.53
2019-02-11T15:45:45.656Z,17.63
2019-02-11T15:48:20.245Z,16.47
2019-02-11T15:50:53.235Z,17.73
2019-02-11T15:53:28.241Z,16.60
2019-02-11T15:56:06.552Z,18.20
2019-02-11T15:58:33.610Z,21.30
2019-02-11T16:01:22.808Z,21.10
2019-02-11T16:03:57.445Z,21.40
2019-02-11T16:06:38.111Z,17.53
2019-02-11T16:09:10.574Z,18.17
2019-02-11T16:11:45.523Z,18.77
2019-02-11T16:14:20.195Z,25.17
2019-02-11T16:16:57.890Z,18.67
2019-02-11T16:19:31.673Z,21.87
2019-02-11T16:22:04.151Z,20.30
2019-02-11T16:24:33.743Z,18.67
2019-02-11T16:27:04.680Z,20.30
2019-02-11T16:29:37.626Z,19.93
2019-02-11T16:32:10.934Z,20.30
2019-02-11T16:37:36.060Z,19.60
2019-02-11T16:40:08.416Z,16.83
2019-02-11T16:42:47.669Z,20.13
2019-02-11T16:45:19.918Z,16.60
2019-02-11T16:47:51.708Z,21.43
2019-02-11T16:50:27.191Z,21.67
2019-02-11T16:52:59.885Z,19.60
2019-02-11T16:55:34.934Z,19.33
2019-02-11T16:58:06.708Z,17.67
2019-02-11T17:00:38.575Z,18.00
2019-02-11T17:03:11.837Z,16.40
2019-02-11T17:05:42.990Z,17.33
2019-02-11T17:08:51.849Z,22.43
2019-02-11T17:11:28.738Z,19.07
2019-02-11T17:14:01.555Z,20.87
2019-02-11T17:16:42.196Z,21.03
2019-02-11T17:19:17.074Z,19.43
2019-02-11T17:21:54.547Z,22.77
2019-02-11T18:43:31.546Z,15.70
2019-02-11T18:46:02.025Z,12.27
2019-02-11T18:51:37.854Z,12.43
2019-02-11T18:57:20.309Z,19.03
2019-02-11T19:03:10.518Z,20.80
2019-02-11T19:05:46.165Z,15.60
2019-02-11T19:08:29.596Z,18.77
2019-02-11T19:11:03.187Z,19.87
2019-02-11T19:13:36.830Z,18.67
2019-02-11T19:16:07.725Z,24.43
2019-02-11T19:18:36.594Z,13.50
2019-02-11T19:21:07.140Z,15.27
2019-02-11T19:23:45.777Z,16.93
2019-02-11T19:26:21.120Z,18.33
2019-02-11T19:28:56.112Z,13.10
2019-02-11T19:34:22.460Z,12.07
2019-02-11T19:37:04.971Z,12.00
2019-02-11T19:39:38.164Z,12.37
2019-02-11T19:42:53.106Z,13.63
2019-02-11T19:45:25.051Z,13.87
2019-02-11T19:47:57.094Z,12.97
2019-02-11T19:50:33.772Z,10.97
2019-02-11T19:54:03.495Z,13.33
2019-02-11T19:56:34.234Z,9.20
2019-02-11T20:02:01.245Z,11.03
2019-02-11T20:04:32.328Z,13.17
2019-02-11T20:07:10.817Z,13.57
2019-02-11T20:09:59.938Z,13.30
2019-02-11T20:12:32.814Z,11.40
2019-02-11T20:18:19.185Z,10.80
2019-02-11T20:21:09.220Z,15.53
2019-02-11T20:23:48.286Z,13.97
2019-02-11T23:46:40.981Z,17.70
2019-02-11T23:52:08.212Z,21.23
2019-02-11T23:54:40.573Z,19.53
2019-02-11T23:57:21.048Z,17.97
2019-02-11T23:59:50.411Z,19.60
